Terminal Aerodrome Forecast
Issued by NWS Shreveport, LA

Home | Current Version | Previous Version | Text Only | Print | Product List | Glossary On
Versions: 1 2 3 4 5 6 7 8 9 10 11 12 13 14 15
000
FTUS44 KSHV 210500
TAFTYR
TAF
KTYR 210540Z 2106/2206 18009KT P6SM SKC
     FM210900 17007KT P6SM BKN015
     FM211400 18010KT P6SM SCT025
     FM211600 18011G19KT P6SM FEW040
     FM220200 18009KT P6SM SCT250=

USA.gov is the U.S. government's official web portal to all federal, state and local government web resources and services.